MiSS Sydney — V7PG2 — position and weather

sailwx.info

Track history (hours):
 
Tides and Currents Weather Stations Pressure Air Temp Water Temp Dewpoint Dewpoint Depression Visibility Wind Speed Wind Dir Waves Ship Positions

MiSS Sydney

Last reported at 2017-Jul-28 14:15 UTC. Time now 2017-Aug-19 07:38 UTC.
Position N 18°18' W 064°52'.
Warning: this ship's position is 21 days out of date.

Length 39 m; draft 2.1 m.

Type: . MMSI: 538070521.

Date/timePositionNaut miles runAvg speedWind from/ knotsBaromVisibWave heightAir tempDewpointWater temp
2017-Jul-28 14:15N 18°18' W 064°52'313.9
2017-Jul-28 14:00N 18°20' W 064°49'1 1.3
2017-Jul-28 13:05N 18°20' W 064°48'0 0.4
2017-Jul-28 12:59N 18°20' W 064°48'3 6.6
2017-Jul-28 12:30N 18°23' W 064°46'5 9.3
2017-Jul-28 11:58N 18°27' W 064°43'0 0.0
2017-Jul-28 11:28N 18°27' W 064°43'0 0.0
2017-Jul-28 10:52N 18°27' W 064°43'0 0.0
2017-Jul-28 10:28N 18°27' W 064°43'0 0.0
2017-Jul-28 09:58N 18°27' W 064°43'0 0.0
2017-Jul-28 09:28N 18°27' W 064°43'0 0.0
2017-Jul-28 08:52N 18°27' W 064°43'0 0.0
2017-Jul-28 08:28N 18°27' W 064°43'0 0.0
2017-Jul-28 08:01N 18°27' W 064°43'0 0.0
2017-Jul-28 07:28N 18°27' W 064°43'0 0.0
2017-Jul-28 06:58N 18°27' W 064°43'0 0.0
2017-Jul-28 06:28N 18°27' W 064°43'0 0.0
2017-Jul-28 05:58N 18°27' W 064°43'0 0.0
2017-Jul-28 05:28N 18°27' W 064°43'0 0.0
2017-Jul-28 04:52N 18°27' W 064°43'0 0.0
2017-Jul-28 04:28N 18°27' W 064°43'0 0.0
2017-Jul-28 00:03N 18°27' W 064°43'0 0.2
2017-Jul-27 23:57N 18°27' W 064°43'0 0.0
2017-Jul-27 23:29N 18°27' W 064°43'0 0.0
2017-Jul-27 23:00N 18°27' W 064°43'0 0.0
2017-Jul-27 22:30N 18°27' W 064°43'0 0.0
2017-Jul-27 22:00N 18°27' W 064°43'0 0.0
2017-Jul-27 21:30N 18°27' W 064°43'0 0.0
2017-Jul-27 21:00N 18°27' W 064°43'0 0.0
2017-Jul-27 20:30N 18°27' W 064°43'0 0.0
2017-Jul-27 20:00N 18°27' W 064°43'0 0.0
2017-Jul-27 19:30N 18°27' W 064°43'4 5.8
2017-Jul-27 18:53N 18°27' W 064°39'0 0.0
2017-Jul-27 18:26N 18°27' W 064°39'2 0.4
2017-Jul-27 14:01N 18°26' W 064°41'4 8.7
2017-Jul-27 13:30N 18°22' W 064°41'4 0.2
2017-Jul-26 16:46N 18°22' W 064°37'413.5
2017-Jul-26 16:29N 18°24' W 064°33'  
2017-Jul-23 22:52N 18°29' W 064°27'615.3
2017-Jul-23 22:30N 18°25' W 064°31'714.9
2017-Jul-23 22:01N 18°22' W 064°38'713.4
2017-Jul-23 21:30N 18°22' W 064°45'0 0.9
2017-Jul-23 20:58N 18°22' W 064°45'0 0.0
2017-Jul-23 20:16N 18°22' W 064°45'0 0.0
2017-Jul-23 19:52N 18°22' W 064°45'0 0.1
2017-Jul-23 19:28N 18°22' W 064°45'0 0.0
2017-Jul-23 18:58N 18°22' W 064°45'0 0.0
2017-Jul-23 18:28N 18°22' W 064°45'0 0.0
2017-Jul-23 17:46N 18°22' W 064°45'0 0.0
2017-Jul-23 17:28N 18°22' W 064°45'0 0.0
2017-Jul-23 16:58N 18°22' W 064°45'0 0.0
2017-Jul-23 16:28N 18°22' W 064°45'0 0.0
2017-Jul-23 15:58N 18°22' W 064°45'0 0.0
2017-Jul-23 15:28N 18°22' W 064°45'0 0.5
2017-Jul-23 15:00N 18°22' W 064°45'612.8
2017-Jul-23 14:30N 18°21' W 064°52'  
Track history (hours):
 
Tides and Currents Weather Stations Pressure Air Temp Water Temp Dewpoint Dewpoint Depression Visibility Wind Speed Wind Dir Waves Ship Positions

MiSS Sydney

Last reported at 2017-Jul-28 14:15 UTC. Time now 2017-Aug-19 07:38 UTC.
Position N 18°18' W 064°52'.
Warning: this ship's position is 21 days out of date.

Length 39 m; draft 2.1 m.

Type: . MMSI: 538070521.

Date/timePositionNaut miles runAvg speedWind from/ knotsBaromVisibWave heightAir tempDewpointWater temp
2017-Jul-28 14:15N 18°18' W 064°52'313.9
2017-Jul-28 14:00N 18°20' W 064°49'1 1.3
2017-Jul-28 13:05N 18°20' W 064°48'0 0.4
2017-Jul-28 12:59N 18°20' W 064°48'3 6.6
2017-Jul-28 12:30N 18°23' W 064°46'5 9.3
2017-Jul-28 11:58N 18°27' W 064°43'0 0.0
2017-Jul-28 11:28N 18°27' W 064°43'0 0.0
2017-Jul-28 10:52N 18°27' W 064°43'0 0.0
2017-Jul-28 10:28N 18°27' W 064°43'0 0.0
2017-Jul-28 09:58N 18°27' W 064°43'0 0.0
2017-Jul-28 09:28N 18°27' W 064°43'0 0.0
2017-Jul-28 08:52N 18°27' W 064°43'0 0.0
2017-Jul-28 08:28N 18°27' W 064°43'0 0.0
2017-Jul-28 08:01N 18°27' W 064°43'0 0.0
2017-Jul-28 07:28N 18°27' W 064°43'0 0.0
2017-Jul-28 06:58N 18°27' W 064°43'0 0.0
2017-Jul-28 06:28N 18°27' W 064°43'0 0.0
2017-Jul-28 05:58N 18°27' W 064°43'0 0.0
2017-Jul-28 05:28N 18°27' W 064°43'0 0.0
2017-Jul-28 04:52N 18°27' W 064°43'0 0.0
2017-Jul-28 04:28N 18°27' W 064°43'0 0.0
2017-Jul-28 00:03N 18°27' W 064°43'0 0.2
2017-Jul-27 23:57N 18°27' W 064°43'0 0.0
2017-Jul-27 23:29N 18°27' W 064°43'0 0.0
2017-Jul-27 23:00N 18°27' W 064°43'0 0.0
2017-Jul-27 22:30N 18°27' W 064°43'0 0.0
2017-Jul-27 22:00N 18°27' W 064°43'0 0.0
2017-Jul-27 21:30N 18°27' W 064°43'0 0.0
2017-Jul-27 21:00N 18°27' W 064°43'0 0.0
2017-Jul-27 20:30N 18°27' W 064°43'0 0.0
2017-Jul-27 20:00N 18°27' W 064°43'0 0.0
2017-Jul-27 19:30N 18°27' W 064°43'4 5.8
2017-Jul-27 18:53N 18°27' W 064°39'0 0.0
2017-Jul-27 18:26N 18°27' W 064°39'2 0.4
2017-Jul-27 14:01N 18°26' W 064°41'4 8.7
2017-Jul-27 13:30N 18°22' W 064°41'4 0.2
2017-Jul-26 16:46N 18°22' W 064°37'413.5
2017-Jul-26 16:29N 18°24' W 064°33'  
2017-Jul-23 22:52N 18°29' W 064°27'615.3
2017-Jul-23 22:30N 18°25' W 064°31'714.9
2017-Jul-23 22:01N 18°22' W 064°38'713.4
2017-Jul-23 21:30N 18°22' W 064°45'0 0.9
2017-Jul-23 20:58N 18°22' W 064°45'0 0.0
2017-Jul-23 20:16N 18°22' W 064°45'0 0.0
2017-Jul-23 19:52N 18°22' W 064°45'0 0.1
2017-Jul-23 19:28N 18°22' W 064°45'0 0.0
2017-Jul-23 18:58N 18°22' W 064°45'0 0.0
2017-Jul-23 18:28N 18°22' W 064°45'0 0.0
2017-Jul-23 17:46N 18°22' W 064°45'0 0.0
2017-Jul-23 17:28N 18°22' W 064°45'0 0.0
2017-Jul-23 16:58N 18°22' W 064°45'0 0.0
2017-Jul-23 16:28N 18°22' W 064°45'0 0.0
2017-Jul-23 15:58N 18°22' W 064°45'0 0.0
2017-Jul-23 15:28N 18°22' W 064°45'0 0.5
2017-Jul-23 15:00N 18°22' W 064°45'612.8
2017-Jul-23 14:30N 18°21' W 064°52'  

Dump ship's entire track history